Terminal Aerodrome Forecast
Issued by NWS

Home | Current Version | Previous Version | Text Only | Print | Product List | Glossary On
Versions: 1 2 3 4 5 6 7 8 9 10 11 12 13 14 15 16
000
FTUS43 KICT 271337 AAA
TAFSLN
TAF AMD
KSLN 271337Z 2714/2812 35012KT P6SM VCTS BKN060CB
      TEMPO 2714/2716 4SM TSRA BKN020CB
     FM271900 35018G27KT P6SM VCTS SCT020 BKN045CB
     FM272300 35014KT P6SM BKN035=

USA.gov is the U.S. government's official web portal to all federal, state and local government web resources and services.